Time;durP1;ratioP1;P1;durP2;ratioP2;P2;SDS_P1;SDS_P2;PMS_P1;PMS_P2;Temp;Humidity;BMP_temperature;BMP_pressure;BME280_temperature;BME280_humidity;BME280_pressure;Samples;Min_cycle;Max_cycle;Signal;HPM_P1;HPM_P2
2023/02/25 00:02:10;;;;;;;5.60;5.10;;;7.80;99.90;;;;;;4984040;28;20558;-74
2023/02/25 00:04:36;;;;;;;7.73;5.00;;;7.80;99.90;;;;;;4983652;28;20202;-72
2023/02/25 00:07:02;;;;;;;6.70;5.50;;;7.50;99.90;;;;;;4983496;28;20182;-72
2023/02/25 00:09:29;;;;;;;6.80;6.10;;;7.70;99.90;;;;;;4966146;28;20213;-72
2023/02/25 00:11:54;;;;;;;9.40;6.50;;;7.90;99.90;;;;;;4983740;28;20507;-71
2023/02/25 00:14:20;;;;;;;7.83;6.07;;;7.90;99.90;;;;;;4984085;28;21067;-71
2023/02/25 00:16:48;;;;;;;8.17;6.53;;;7.90;99.90;;;;;;4983621;28;20183;-72
2023/02/25 00:19:14;;;;;;;9.23;6.10;;;7.90;99.90;;;;;;4966364;28;20556;-72
2023/02/25 00:21:39;;;;;;;8.50;7.50;;;7.70;99.90;;;;;;4983477;28;20461;-71
2023/02/25 00:24:06;;;;;;;8.47;6.43;;;7.70;99.90;;;;;;4983739;28;20204;-73
2023/02/25 00:26:31;;;;;;;7.70;6.90;;;7.50;99.90;;;;;;4984268;28;20190;-72
2023/02/25 00:28:57;;;;;;;7.10;6.10;;;7.50;99.90;;;;;;4983419;28;20454;-72
2023/02/25 00:31:24;;;;;;;7.87;6.23;;;7.60;99.90;;;;;;4983587;28;20297;-71
2023/02/25 00:33:50;;;;;;;6.77;5.60;;;7.70;99.90;;;;;;4983173;28;20642;-71
2023/02/25 00:36:22;;;;;;;10.83;6.30;;;7.50;99.90;;;;;;4983284;28;20405;-73
2023/02/25 00:38:49;;;;;;;7.60;6.10;;;7.50;99.90;;;;;;4984625;28;21020;-71
2023/02/25 00:41:18;;;;;;;9.47;6.70;;;7.60;99.90;;;;;;4966054;28;20427;-71
2023/02/25 00:43:49;;;;;;;8.43;7.33;;;7.70;99.90;;;;;;4983585;28;20421;-71
2023/02/25 00:46:14;;;;;;;8.83;6.77;;;7.70;99.90;;;;;;4966119;28;20956;-73
2023/02/25 00:48:41;;;;;;;10.00;7.17;;;7.90;99.90;;;;;;4982937;28;20457;-71
2023/02/25 00:51:18;;;;;;;8.20;7.40;;;7.80;99.90;;;;;;4983293;28;20216;-73
2023/02/25 00:53:44;;;;;;;9.20;8.07;;;7.80;99.90;;;;;;4983247;28;20979;-72
2023/02/25 00:56:14;;;;;;;10.10;7.63;;;7.80;99.90;;;;;;4983250;28;20701;-72
2023/02/25 00:58:40;;;;;;;8.13;6.60;;;7.50;99.90;;;;;;4967799;28;20562;-71
2023/02/25 01:01:37;;;;;;;8.70;7.40;;;7.60;99.90;;;;;;4986621;28;20431;-73
2023/02/25 01:04:03;;;;;;;8.97;6.73;;;7.60;99.90;;;;;;4968905;28;20969;-70
2023/02/25 01:06:31;;;;;;;11.50;7.77;;;7.40;99.90;;;;;;4986032;28;20419;-70
2023/02/25 01:08:58;;;;;;;9.87;8.47;;;7.40;99.90;;;;;;4986390;28;20512;-72
2023/02/25 01:11:28;;;;;;;10.57;7.50;;;7.50;99.90;;;;;;4986658;28;20903;-71
2023/02/25 01:13:58;;;;;;;9.80;7.07;;;7.40;99.90;;;;;;4986963;28;20500;-70
2023/02/25 01:16:25;;;;;;;8.00;6.60;;;7.40;99.90;;;;;;4986838;28;21017;-71
2023/02/25 01:18:53;;;;;;;8.90;6.90;;;7.20;99.90;;;;;;4986211;28;20417;-70
2023/02/25 01:21:41;;;;;;;8.77;6.50;;;7.20;99.90;;;;;;4985520;28;20923;-71
2023/02/25 01:24:20;;;;;;;9.23;5.60;;;7.20;99.90;;;;;;4985288;28;20501;-71
2023/02/25 01:26:47;;;;;;;5.83;5.30;;;6.90;99.90;;;;;;4968729;28;20428;-71
2023/02/25 01:29:17;;;;;;;7.80;5.43;;;6.80;99.90;;;;;;4986053;28;20491;-72
2023/02/25 01:31:43;;;;;;;7.20;4.53;;;6.80;99.90;;;;;;4986163;28;20932;-73
2023/02/25 01:34:13;;;;;;;6.17;5.40;;;6.70;99.90;;;;;;4984990;28;20448;-73
2023/02/25 01:36:39;;;;;;;7.20;5.67;;;6.70;99.90;;;;;;4985978;28;20415;-71
2023/02/25 01:39:05;;;;;;;7.10;5.60;;;6.70;99.90;;;;;;4985844;28;20413;-74
2023/02/25 01:41:33;;;;;;;6.10;5.20;;;6.70;99.90;;;;;;4985924;28;20235;-73
2023/02/25 01:44:17;;;;;;;7.80;5.97;;;6.90;99.90;;;;;;4985214;28;20548;-71
2023/02/25 01:46:45;;;;;;;11.67;7.20;;;7.00;99.90;;;;;;4985800;28;20497;-72
2023/02/25 01:49:28;;;;;;;9.67;6.40;;;7.10;99.90;;;;;;4985461;28;21076;-71
2023/02/25 01:52:07;;;;;;;8.43;5.40;;;7.00;99.90;;;;;;4984195;28;20783;-72
2023/02/25 01:54:35;;;;;;;7.73;5.40;;;7.00;99.90;;;;;;4985834;28;20466;-72
2023/02/25 01:57:05;;;;;;;6.33;5.57;;;6.90;99.90;;;;;;4968266;28;20828;-71
2023/02/25 01:59:31;;;;;;;6.50;4.93;;;6.90;99.90;;;;;;4985945;28;20421;-71
2023/02/25 02:01:57;;;;;;;8.80;5.10;;;6.80;99.90;;;;;;4985333;28;20418;-72
2023/02/25 02:04:23;;;;;;;7.03;4.13;;;6.70;99.90;;;;;;4985662;28;20807;-71
2023/02/25 02:06:49;;;;;;;6.50;4.80;;;6.60;99.90;;;;;;4985520;28;20255;-74
2023/02/25 02:09:22;;;;;;;5.30;4.27;;;6.60;99.90;;;;;;4984459;28;20465;-76
2023/02/25 02:11:48;;;;;;;7.90;4.97;;;6.50;99.90;;;;;;4985416;28;20759;-71
2023/02/25 02:14:23;;;;;;;8.50;4.93;;;6.60;99.90;;;;;;4985545;28;20443;-73
2023/02/25 02:17:18;;;;;;;5.53;4.60;;;6.60;99.90;;;;;;4969354;28;20175;-72
2023/02/25 02:19:46;;;;;;;5.07;3.80;;;6.50;99.90;;;;;;4986726;28;20416;-71
2023/02/25 02:22:34;;;;;;;9.17;4.60;;;6.50;99.90;;;;;;4985686;28;20409;-71
2023/02/25 02:25:21;;;;;;;7.47;4.73;;;6.60;99.90;;;;;;4968028;28;20444;-72
2023/02/25 02:28:15;;;;;;;4.63;3.77;;;6.70;99.90;;;;;;4985159;28;21404;-71
2023/02/25 02:31:12;;;;;;;6.80;4.10;;;6.70;99.90;;;;;;4985137;28;20421;-72
2023/02/25 02:33:49;;;;;;;7.10;4.00;;;6.70;99.90;;;;;;4984957;28;20414;-71
2023/02/25 02:36:22;;;;;;;3.67;3.30;;;6.70;99.90;;;;;;4967881;28;20422;-73
2023/02/25 02:38:56;;;;;;;5.50;4.27;;;6.90;99.90;;;;;;4985418;28;20469;-74
2023/02/25 02:41:45;;;;;;;5.30;3.80;;;6.90;99.90;;;;;;4985169;28;20851;-70
2023/02/25 02:44:27;;;;;;;6.20;3.43;;;6.90;99.90;;;;;;4984898;28;20436;-72
2023/02/25 02:47:11;;;;;;;5.60;4.27;;;6.80;99.90;;;;;;4985074;28;20779;-72
2023/02/25 02:49:50;;;;;;;4.93;3.90;;;6.80;99.90;;;;;;4985095;28;20806;-71
2023/02/25 02:52:38;;;;;;;9.67;4.50;;;6.80;99.90;;;;;;4984418;28;20404;-72
2023/02/25 02:55:23;;;;;;;6.80;4.60;;;6.80;99.90;;;;;;4983880;28;20467;-74
2023/02/25 02:57:59;;;;;;;6.10;4.60;;;6.70;99.90;;;;;;4984697;28;20483;-71
2023/02/25 03:00:29;;;;;;;4.87;3.90;;;6.80;99.90;;;;;;4984659;28;20403;-72
2023/02/25 03:03:04;;;;;;;5.93;4.07;;;6.80;99.90;;;;;;4984435;28;20405;-72
2023/02/25 03:05:33;;;;;;;5.07;4.50;;;6.80;99.90;;;;;;4984599;28;21089;-75
2023/02/25 03:08:08;;;;;;;6.93;4.90;;;6.70;99.90;;;;;;4984462;28;20466;-74
2023/02/25 03:10:34;;;;;;;5.13;4.20;;;6.80;99.90;;;;;;4984797;28;20924;-72
2023/02/25 03:13:00;;;;;;;8.60;4.30;;;6.70;99.90;;;;;;4984976;28;20424;-72
2023/02/25 03:15:28;;;;;;;4.83;3.73;;;6.80;99.90;;;;;;4984477;28;20306;-71
2023/02/25 03:17:59;;;;;;;7.87;4.23;;;6.80;99.90;;;;;;4984364;28;20453;-71
2023/02/25 03:20:34;;;;;;;6.80;4.47;;;6.80;99.90;;;;;;4985145;28;21004;-72
2023/02/25 03:23:05;;;;;;;5.20;4.47;;;6.70;99.90;;;;;;4967738;28;20429;-71
2023/02/25 03:25:46;;;;;;;23.77;11.23;;;6.70;99.90;;;;;;4985504;28;20428;-75
2023/02/25 03:28:32;;;;;;;17.93;11.00;;;6.70;99.90;;;;;;4984532;28;20461;-72
2023/02/25 03:31:08;;;;;;;9.53;4.57;;;6.70;99.90;;;;;;4984674;28;20404;-72
2023/02/25 03:33:46;;;;;;;5.37;3.47;;;6.50;99.90;;;;;;4984223;28;20583;-71
2023/02/25 03:36:19;;;;;;;5.10;3.70;;;6.40;99.90;;;;;;4967490;28;20826;-72
2023/02/25 03:38:50;;;;;;;4.97;3.80;;;6.50;99.90;;;;;;4984363;28;20423;-71
2023/02/25 03:41:17;;;;;;;3.90;3.30;;;6.50;99.90;;;;;;4984807;28;20496;-71
2023/02/25 03:43:50;;;;;;;7.73;3.43;;;6.30;99.90;;;;;;4966205;28;20923;-74
2023/02/25 03:46:18;;;;;;;5.63;3.77;;;6.40;99.90;;;;;;4983816;28;20404;-72
2023/02/25 03:48:45;;;;;;;7.77;2.80;;;6.40;99.90;;;;;;4984250;28;20594;-71
2023/02/25 03:51:14;;;;;;;4.10;3.20;;;6.30;99.90;;;;;;4984484;28;20427;-71
2023/02/25 03:53:40;;;;;;;3.20;2.83;;;6.30;99.90;;;;;;4984676;28;20435;-73
2023/02/25 03:56:08;;;;;;;3.87;3.13;;;6.30;99.90;;;;;;4984881;28;20434;-72
2023/02/25 03:58:39;;;;;;;5.43;2.77;;;6.30;99.90;;;;;;4985347;28;20193;-72
2023/02/25 04:01:27;;;;;;;2.80;2.00;;;6.30;99.90;;;;;;4984896;28;20790;-72
2023/02/25 04:03:52;;;;;;;2.80;2.50;;;6.20;99.90;;;;;;4983897;28;20446;-72
2023/02/25 04:06:21;;;;;;;4.13;2.67;;;6.10;99.90;;;;;;4984828;28;20415;-72
2023/02/25 04:08:47;;;;;;;4.60;2.17;;;6.10;99.90;;;;;;4985155;28;20200;-72
2023/02/25 04:11:13;;;;;;;4.27;2.17;;;6.10;99.90;;;;;;4986951;28;20415;-73
2023/02/25 04:13:38;;;;;;;5.70;2.40;;;6.00;99.90;;;;;;4987095;28;20189;-74
2023/02/25 04:16:04;;;;;;;8.37;2.70;;;6.00;99.90;;;;;;4986078;28;20431;-71
2023/02/25 04:18:30;;;;;;;4.00;1.90;;;6.00;99.90;;;;;;4985204;28;20635;-72
2023/02/25 04:20:55;;;;;;;4.67;2.30;;;6.10;99.90;;;;;;4997964;28;20485;-72
2023/02/25 04:23:21;;;;;;;3.40;2.10;;;6.10;99.90;;;;;;4998695;28;20215;-76
2023/02/25 04:25:47;;;;;;;3.33;2.13;;;6.10;99.90;;;;;;4998960;28;20264;-72
2023/02/25 04:28:13;;;;;;;5.10;2.00;;;6.20;99.90;;;;;;4998667;28;20533;-73
2023/02/25 04:30:38;;;;;;;4.33;2.10;;;6.30;99.90;;;;;;4981443;28;20811;-73
2023/02/25 04:33:04;;;;;;;3.40;1.60;;;6.30;99.90;;;;;;5000447;28;20276;-73
2023/02/25 04:35:29;;;;;;;5.13;2.00;;;6.30;99.90;;;;;;4986208;28;20199;-75
2023/02/25 04:37:55;;;;;;;4.83;2.00;;;6.30;99.90;;;;;;5002926;28;20232;-74
2023/02/25 04:40:21;;;;;;;4.33;1.90;;;6.30;99.90;;;;;;5003124;28;20194;-72
2023/02/25 04:42:48;;;;;;;3.17;2.20;;;6.20;99.90;;;;;;4984979;28;20192;-74
2023/02/25 04:45:14;;;;;;;3.43;1.90;;;6.10;99.90;;;;;;4980097;28;20470;-71
2023/02/25 04:47:40;;;;;;;4.13;1.93;;;6.00;99.90;;;;;;4987393;28;20502;-71
2023/02/25 04:50:08;;;;;;;6.13;1.90;;;6.10;99.90;;;;;;4988632;28;20510;-71
2023/02/25 04:52:34;;;;;;;5.43;2.17;;;6.10;99.90;;;;;;4969200;28;20570;-75
2023/02/25 04:54:59;;;;;;;5.20;2.17;;;6.10;99.90;;;;;;4989704;28;20468;-71
2023/02/25 04:57:25;;;;;;;3.60;1.80;;;6.10;99.90;;;;;;4988687;28;20446;-75
2023/02/25 04:59:51;;;;;;;3.60;1.90;;;6.00;99.90;;;;;;4986877;28;20185;-70
2023/02/25 05:02:16;;;;;;;7.00;3.10;;;6.10;99.90;;;;;;4986580;28;20474;-71
2023/02/25 05:04:42;;;;;;;4.43;1.77;;;6.30;99.90;;;;;;4986826;28;20216;-70
2023/02/25 05:07:08;;;;;;;3.53;1.90;;;6.30;99.90;;;;;;4986383;28;20656;-70
2023/02/25 05:09:34;;;;;;;4.97;2.20;;;6.30;99.90;;;;;;4986795;28;20205;-70
2023/02/25 05:12:00;;;;;;;5.97;1.90;;;6.30;99.90;;;;;;4968913;28;20789;-71
2023/02/25 05:14:26;;;;;;;3.83;1.40;;;6.20;99.90;;;;;;4986795;28;20210;-73
2023/02/25 05:16:52;;;;;;;4.43;1.83;;;6.20;99.90;;;;;;4986896;28;20419;-70
2023/02/25 05:19:22;;;;;;;10.10;1.90;;;6.20;99.90;;;;;;4986321;28;20194;-72
2023/02/25 05:21:49;;;;;;;3.00;1.47;;;6.20;99.90;;;;;;4985938;28;20224;-72
2023/02/25 05:24:15;;;;;;;9.13;1.70;;;6.20;99.90;;;;;;4986666;28;20447;-72
2023/02/25 05:26:41;;;;;;;2.93;1.60;;;6.10;99.90;;;;;;4986288;28;20415;-72
2023/02/25 05:29:07;;;;;;;5.80;1.87;;;6.00;99.90;;;;;;4986566;28;20506;-75
2023/02/25 05:31:33;;;;;;;5.87;2.30;;;6.00;99.90;;;;;;4986215;28;20504;-71
2023/02/25 05:33:58;;;;;;;3.30;2.17;;;6.10;99.90;;;;;;4985793;28;20686;-72
2023/02/25 05:36:24;;;;;;;4.70;1.47;;;6.00;99.90;;;;;;4985962;28;20185;-71
2023/02/25 05:38:57;;;;;;;2.90;1.50;;;6.00;99.90;;;;;;4986277;28;20228;-72
2023/02/25 05:41:23;;;;;;;6.87;2.40;;;5.90;99.90;;;;;;4969110;28;20527;-74
2023/02/25 05:43:49;;;;;;;8.97;3.13;;;6.10;99.90;;;;;;4986412;28;20423;-74
2023/02/25 05:46:14;;;;;;;4.93;2.00;;;6.20;99.90;;;;;;4968778;28;20431;-72
2023/02/25 05:48:44;;;;;;;3.17;1.57;;;6.10;99.90;;;;;;4968155;28;20212;-72
2023/02/25 05:51:12;;;;;;;2.50;1.20;;;6.10;99.90;;;;;;4986216;28;20208;-71
2023/02/25 05:53:38;;;;;;;1.67;1.40;;;6.00;99.90;;;;;;4985478;28;20415;-73
2023/02/25 05:56:06;;;;;;;6.47;1.80;;;6.00;99.90;;;;;;4968364;28;20498;-73
2023/02/25 05:58:32;;;;;;;4.07;1.60;;;6.10;99.90;;;;;;4968374;28;20464;-74
2023/02/25 06:00:58;;;;;;;1.53;1.10;;;6.20;99.90;;;;;;4969167;28;20427;-72
2023/02/25 06:03:23;;;;;;;3.33;1.40;;;6.30;99.90;;;;;;4986998;28;20869;-71
2023/02/25 06:05:49;;;;;;;2.10;1.07;;;6.20;99.90;;;;;;4986219;28;20380;-72
2023/02/25 06:08:14;;;;;;;4.83;1.37;;;6.30;99.90;;;;;;4985367;28;20294;-74
2023/02/25 06:10:40;;;;;;;2.83;1.23;;;6.20;99.90;;;;;;4985739;28;20177;-74
2023/02/25 06:13:07;;;;;;;3.90;1.50;;;6.20;99.90;;;;;;4986717;28;20286;-71
2023/02/25 06:15:36;;;;;;;4.33;1.67;;;6.30;99.90;;;;;;4968948;28;20296;-75
2023/02/25 06:18:01;;;;;;;3.70;1.90;;;6.30;99.90;;;;;;4986200;28;21251;-76
2023/02/25 06:20:27;;;;;;;2.20;1.40;;;6.50;99.90;;;;;;4969625;28;20478;-72
2023/02/25 06:22:53;;;;;;;3.67;1.23;;;6.60;99.90;;;;;;4986589;28;20211;-74
2023/02/25 06:25:19;;;;;;;3.90;1.60;;;6.70;99.90;;;;;;4987386;28;20200;-73
2023/02/25 06:27:44;;;;;;;4.90;1.40;;;6.70;99.90;;;;;;4986721;28;20561;-74
2023/02/25 06:30:11;;;;;;;1.63;1.53;;;6.80;99.90;;;;;;4969350;28;20503;-71
2023/02/25 06:32:36;;;;;;;3.73;1.33;;;6.60;99.90;;;;;;4986363;28;20178;-72
2023/02/25 06:35:02;;;;;;;1.80;1.30;;;6.70;99.90;;;;;;4986576;28;20491;-73
2023/02/25 06:37:27;;;;;;;3.83;1.43;;;6.70;99.90;;;;;;4986536;28;20605;-74
2023/02/25 06:39:53;;;;;;;5.77;1.50;;;6.60;99.90;;;;;;4969533;28;20189;-75
2023/02/25 06:42:19;;;;;;;2.80;1.50;;;6.40;99.90;;;;;;4986577;28;20189;-73
2023/02/25 06:44:44;;;;;;;3.27;1.70;;;6.60;99.90;;;;;;4986165;28;20210;-73
2023/02/25 06:47:10;;;;;;;4.73;1.73;;;6.60;99.90;;;;;;4986819;28;20173;-73
2023/02/25 06:49:36;;;;;;;3.90;2.17;;;6.60;99.90;;;;;;4985917;28;20729;-76
2023/02/25 06:52:02;;;;;;;2.33;1.50;;;6.70;99.90;;;;;;4985525;28;20751;-71
2023/02/25 06:54:28;;;;;;;3.63;1.70;;;6.70;99.90;;;;;;4984781;28;20543;-72
2023/02/25 06:56:54;;;;;;;3.13;1.60;;;6.70;99.90;;;;;;4983228;28;20788;-73
2023/02/25 06:59:20;;;;;;;2.87;1.57;;;6.90;99.90;;;;;;4984586;28;20195;-71
2023/02/25 07:01:46;;;;;;;5.37;2.10;;;6.80;99.90;;;;;;4984411;28;20583;-71
2023/02/25 07:04:15;;;;;;;1.80;1.37;;;6.70;99.90;;;;;;4984180;28;20207;-72
2023/02/25 07:06:41;;;;;;;6.87;1.73;;;6.40;99.90;;;;;;4984457;28;20195;-73
2023/02/25 07:09:06;;;;;;;2.93;1.83;;;6.30;99.90;;;;;;4984967;28;20465;-72
2023/02/25 07:11:34;;;;;;;3.60;1.50;;;6.30;99.90;;;;;;4984393;28;20643;-72
2023/02/25 07:14:00;;;;;;;5.20;1.63;;;6.20;99.90;;;;;;4984252;28;20197;-74
2023/02/25 07:16:28;;;;;;;3.00;1.60;;;6.10;99.90;;;;;;4984999;28;20426;-71
2023/02/25 07:18:54;;;;;;;3.07;1.80;;;6.10;99.90;;;;;;4966764;28;20471;-72
2023/02/25 07:21:21;;;;;;;1.70;1.40;;;6.20;99.90;;;;;;4984243;28;20425;-71
2023/02/25 07:23:46;;;;;;;4.80;1.67;;;6.10;99.90;;;;;;4966532;28;20522;-71
2023/02/25 07:26:14;;;;;;;4.47;1.23;;;6.00;99.90;;;;;;4984536;28;20523;-74
2023/02/25 07:28:40;;;;;;;4.10;1.40;;;6.00;99.90;;;;;;4984072;28;20695;-71
2023/02/25 07:31:14;;;;;;;2.97;1.33;;;6.10;99.90;;;;;;4984654;28;20451;-71
2023/02/25 07:33:40;;;;;;;3.83;1.07;;;6.20;99.90;;;;;;4983932;28;20412;-76
2023/02/25 07:36:07;;;;;;;4.63;1.87;;;6.20;99.90;;;;;;4984159;28;21045;-71
2023/02/25 07:38:32;;;;;;;3.33;1.90;;;6.30;99.90;;;;;;4983694;28;20514;-73
2023/02/25 07:41:09;;;;;;;3.83;1.70;;;6.20;99.90;;;;;;4985024;28;20498;-71
2023/02/25 07:43:35;;;;;;;4.60;1.87;;;6.30;99.90;;;;;;4967780;28;20677;-73
2023/02/25 07:46:01;;;;;;;5.80;1.63;;;6.50;99.90;;;;;;4984660;28;20423;-76
2023/02/25 07:48:27;;;;;;;2.27;1.53;;;6.50;99.90;;;;;;4984688;28;20211;-72
2023/02/25 07:50:54;;;;;;;3.27;1.60;;;6.40;99.90;;;;;;4966541;28;20446;-75
2023/02/25 07:53:21;;;;;;;3.40;2.10;;;6.50;99.90;;;;;;4983416;28;20417;-74
2023/02/25 07:55:47;;;;;;;3.07;1.60;;;6.50;99.90;;;;;;4983478;28;20484;-72
2023/02/25 07:58:14;;;;;;;3.13;1.27;;;6.40;99.90;;;;;;4965922;28;21401;-70
2023/02/25 08:00:40;;;;;;;6.70;1.70;;;6.30;99.90;;;;;;5007892;22;20826;-71
2023/02/25 08:03:06;;;;;;;1.93;1.53;;;6.10;99.90;;;;;;4983253;28;20973;-71
2023/02/25 08:05:33;;;;;;;5.40;1.60;;;6.00;99.90;;;;;;4983175;28;20414;-73
2023/02/25 08:07:59;;;;;;;3.43;1.60;;;6.20;99.90;;;;;;4968456;28;20456;-72
2023/02/25 08:10:24;;;;;;;4.53;1.70;;;6.20;99.90;;;;;;4987125;28;20448;-74
2023/02/25 08:12:50;;;;;;;3.10;1.80;;;6.20;99.90;;;;;;4987393;28;20239;-71
2023/02/25 08:15:16;;;;;;;4.90;1.43;;;6.30;99.90;;;;;;4987220;28;20176;-71
2023/02/25 08:17:41;;;;;;;5.03;2.13;;;6.20;99.90;;;;;;4987207;28;20188;-72
2023/02/25 08:20:08;;;;;;;3.20;1.40;;;6.30;99.90;;;;;;4969246;28;20556;-71
2023/02/25 08:22:34;;;;;;;3.53;1.50;;;6.20;99.90;;;;;;4987032;28;20552;-74
2023/02/25 08:24:59;;;;;;;5.17;1.80;;;6.20;99.90;;;;;;4986516;28;20500;-72
2023/02/25 08:27:25;;;;;;;4.13;1.80;;;6.20;99.90;;;;;;4987295;28;20210;-71
2023/02/25 08:29:51;;;;;;;2.60;1.50;;;6.30;99.90;;;;;;4986992;28;20199;-72
2023/02/25 08:32:17;;;;;;;3.30;1.70;;;6.30;99.90;;;;;;4986931;28;20627;-71
2023/02/25 08:34:42;;;;;;;4.37;1.57;;;6.40;99.90;;;;;;4987329;28;20685;-72
2023/02/25 08:37:12;;;;;;;6.70;1.80;;;6.40;99.90;;;;;;4986776;28;20185;-73
2023/02/25 08:39:37;;;;;;;6.60;1.30;;;6.40;99.90;;;;;;4985923;28;20209;-71
2023/02/25 08:42:03;;;;;;;2.90;1.50;;;6.50;99.90;;;;;;4987522;28;20421;-72
2023/02/25 08:44:29;;;;;;;3.57;1.77;;;6.60;99.90;;;;;;4986544;28;20183;-73
2023/02/25 08:46:54;;;;;;;2.17;1.70;;;6.40;99.90;;;;;;4987012;28;20471;-71
2023/02/25 08:49:20;;;;;;;3.67;1.87;;;6.40;99.90;;;;;;4986264;28;20411;-71
2023/02/25 08:51:49;;;;;;;8.20;1.83;;;6.40;99.90;;;;;;4986535;28;20184;-72
2023/02/25 08:54:15;;;;;;;5.50;1.47;;;6.50;99.90;;;;;;4986316;28;20173;-70
2023/02/25 08:56:43;;;;;;;2.20;1.60;;;6.40;99.90;;;;;;4986281;28;20860;-71
2023/02/25 08:59:14;;;;;;;2.07;1.70;;;6.50;99.90;;;;;;4986370;28;20422;-72
2023/02/25 09:01:45;;;;;;;2.57;1.47;;;6.30;99.90;;;;;;4986691;28;20419;-70
2023/02/25 09:04:20;;;;;;;4.67;2.00;;;6.30;99.90;;;;;;4986789;28;20426;-70
2023/02/25 09:06:46;;;;;;;6.43;1.80;;;6.20;99.90;;;;;;4986485;28;20506;-71
2023/02/25 09:09:12;;;;;;;5.03;1.80;;;6.20;99.90;;;;;;4980995;28;20922;-71
2023/02/25 09:11:39;;;;;;;2.43;1.40;;;6.30;99.90;;;;;;4986703;28;20423;-71
2023/02/25 09:14:04;;;;;;;3.80;2.00;;;6.40;99.90;;;;;;4986088;28;20777;-71
2023/02/25 09:16:30;;;;;;;5.13;1.57;;;6.60;99.90;;;;;;4986069;28;20417;-71
2023/02/25 09:18:56;;;;;;;3.43;1.73;;;6.80;99.90;;;;;;4986083;28;20673;-72
2023/02/25 09:21:21;;;;;;;3.20;1.60;;;7.00;99.90;;;;;;4985734;28;20247;-75
2023/02/25 09:23:49;;;;;;;3.13;1.53;;;7.00;99.90;;;;;;4984925;28;20200;-72
2023/02/25 09:26:15;;;;;;;2.73;1.57;;;7.10;99.90;;;;;;4985730;28;20189;-72
2023/02/25 09:28:41;;;;;;;6.23;1.90;;;7.10;99.90;;;;;;4985741;28;20460;-71
2023/02/25 09:31:07;;;;;;;5.60;2.23;;;7.10;99.90;;;;;;4985977;28;20480;-72
2023/02/25 09:33:34;;;;;;;6.33;2.10;;;7.00;99.90;;;;;;4985857;28;20245;-70
2023/02/25 09:36:12;;;;;;;2.73;1.90;;;7.00;99.90;;;;;;4986292;28;20188;-72
2023/02/25 09:38:40;;;;;;;6.17;2.00;;;7.00;99.90;;;;;;4986183;28;20407;-72
2023/02/25 09:41:24;;;;;;;3.80;1.37;;;7.00;99.90;;;;;;4986028;28;20849;-72
2023/02/25 09:44:01;;;;;;;4.07;1.50;;;7.00;99.90;;;;;;4986194;28;20476;-71
2023/02/25 09:46:28;;;;;;;2.90;1.53;;;7.20;99.90;;;;;;4974748;28;20576;-71
2023/02/25 09:49:26;;;;;;;4.63;1.67;;;7.40;99.90;;;;;;4985076;28;20836;-72
2023/02/25 09:52:21;;;;;;;47.43;30.17;;;7.50;99.70;;;;;;4963947;28;20804;-71
2023/02/25 09:54:54;;;;;;;37.50;24.53;;;7.70;99.90;;;;;;4976061;28;20432;-70
2023/02/25 09:57:22;;;;;;;28.40;19.37;;;7.90;97.60;;;;;;4985374;28;20438;-75
2023/02/25 09:59:50;;;;;;;14.43;10.50;;;8.10;97.20;;;;;;4985115;28;20976;-71
2023/02/25 10:02:37;;;;;;;6.63;3.73;;;8.10;96.90;;;;;;4985312;28;20415;-72
2023/02/25 10:05:15;;;;;;;8.83;6.50;;;8.20;96.00;;;;;;4985289;28;20987;-72
2023/02/25 10:08:10;;;;;;;8.70;7.50;;;7.80;96.40;;;;;;4985127;28;20421;-71
2023/02/25 10:11:04;;;;;;;4.93;1.10;;;7.90;96.30;;;;;;4984696;28;20445;-70
2023/02/25 10:13:43;;;;;;;3.50;2.00;;;8.00;96.30;;;;;;4985265;28;20415;-72
2023/02/25 10:16:42;;;;;;;3.53;3.10;;;7.90;96.20;;;;;;4985424;28;20416;-72
2023/02/25 10:19:35;;;;;;;3.83;2.20;;;7.90;96.50;;;;;;4985448;28;20407;-69
2023/02/25 10:22:23;;;;;;;1.20;1.00;;;8.10;96.70;;;;;;4985186;28;20646;-69
2023/02/25 10:24:56;;;;;;;3.03;1.10;;;8.10;95.90;;;;;;4984434;28;20502;-69
2023/02/25 10:27:40;;;;;;;3.40;1.60;;;8.10;95.90;;;;;;4985110;28;20443;-70
2023/02/25 10:30:18;;;;;;;1.67;1.00;;;8.10;95.90;;;;;;4984567;28;20436;-71
2023/02/25 10:32:45;;;;;;;2.70;1.73;;;8.10;95.50;;;;;;4985198;28;20399;-70
2023/02/25 10:35:25;;;;;;;3.53;1.70;;;8.10;96.20;;;;;;4971617;28;20422;-69
2023/02/25 10:37:52;;;;;;;1.47;1.30;;;8.10;95.90;;;;;;4985151;28;20413;-69
2023/02/25 10:40:20;;;;;;;1.10;1.00;;;7.80;96.20;;;;;;4984667;28;20438;-69
2023/02/25 10:42:49;;;;;;;3.83;1.30;;;7.60;96.50;;;;;;4985105;28;20449;-69
2023/02/25 10:45:28;;;;;;;1.90;0.87;;;7.80;96.90;;;;;;4985052;28;20864;-73
2023/02/25 10:48:15;;;;;;;3.10;1.30;;;7.70;96.40;;;;;;4985163;28;20453;-71
2023/02/25 10:50:40;;;;;;;1.57;1.40;;;7.70;96.60;;;;;;4984973;28;20446;-70
2023/02/25 10:53:15;;;;;;;1.87;1.30;;;7.90;96.90;;;;;;4984327;28;20602;-69
2023/02/25 10:55:50;;;;;;;1.37;1.00;;;8.10;96.70;;;;;;4984395;28;20187;-68
2023/02/25 10:58:33;;;;;;;2.20;1.50;;;8.00;96.40;;;;;;4984403;28;20468;-69
2023/02/25 11:01:04;;;;;;;1.40;0.87;;;8.00;97.20;;;;;;4984812;28;20455;-71
2023/02/25 11:03:32;;;;;;;6.60;4.50;;;7.80;96.40;;;;;;4984636;28;20937;-69
2023/02/25 11:06:24;;;;;;;2.20;1.20;;;7.80;96.60;;;;;;4984603;28;20414;-73
2023/02/25 11:08:51;;;;;;;2.67;1.07;;;7.80;96.40;;;;;;4984321;28;20999;-69
2023/02/25 11:11:24;;;;;;;2.83;0.80;;;7.70;96.50;;;;;;4984237;28;20442;-70
2023/02/25 11:13:55;;;;;;;3.80;1.67;;;7.60;97.00;;;;;;4984570;28;20987;-74
2023/02/25 11:16:21;;;;;;;3.33;0.90;;;7.70;96.90;;;;;;4984256;28;20415;-71
2023/02/25 11:18:53;;;;;;;2.67;1.37;;;7.90;96.50;;;;;;4984120;28;20433;-71
2023/02/25 11:21:31;;;;;;;4.33;1.07;;;8.10;97.40;;;;;;4984660;28;20429;-70
2023/02/25 11:24:19;;;;;;;2.50;1.27;;;8.20;96.30;;;;;;4983968;28;20893;-71
2023/02/25 11:26:48;;;;;;;1.60;1.00;;;8.30;95.50;;;;;;4970123;28;20474;-70
2023/02/25 11:29:17;;;;;;;1.10;0.90;;;8.50;95.30;;;;;;4984257;28;20808;-70
2023/02/25 11:31:48;;;;;;;2.30;1.30;;;8.60;95.40;;;;;;4966468;28;20941;-74
2023/02/25 11:34:29;;;;;;;1.47;1.00;;;8.70;95.40;;;;;;4984261;28;20441;-72
2023/02/25 11:36:58;;;;;;;2.27;1.60;;;8.50;95.90;;;;;;4984697;28;20414;-71
2023/02/25 11:39:30;;;;;;;1.47;1.07;;;8.40;96.40;;;;;;4983244;28;20444;-72
2023/02/25 11:42:00;;;;;;;5.43;1.77;;;8.10;96.80;;;;;;4983975;28;21004;-71
2023/02/25 11:44:28;;;;;;;2.70;1.03;;;7.70;97.60;;;;;;4984545;28;20427;-71
2023/02/25 11:46:56;;;;;;;3.03;1.70;;;7.70;98.30;;;;;;4983889;28;20859;-71
2023/02/25 11:49:40;;;;;;;3.13;1.77;;;7.70;98.30;;;;;;4983520;28;20470;-71
2023/02/25 11:52:08;;;;;;;4.00;1.73;;;7.70;98.40;;;;;;4983580;28;20410;-71
2023/02/25 11:54:55;;;;;;;1.40;1.30;;;7.80;98.20;;;;;;4983179;28;20917;-71
2023/02/25 11:57:40;;;;;;;3.60;1.50;;;8.00;98.00;;;;;;4983523;28;20796;-69
2023/02/25 12:00:17;;;;;;;3.50;1.70;;;7.80;97.90;;;;;;4983762;28;20515;-72
2023/02/25 12:02:58;;;;;;;2.30;1.30;;;7.80;98.10;;;;;;4984866;28;20421;-71
2023/02/25 12:05:49;;;;;;;3.57;1.43;;;8.10;97.90;;;;;;4985637;28;20422;-72
2023/02/25 12:08:31;;;;;;;2.20;1.50;;;8.00;97.50;;;;;;4984868;28;21114;-74
2023/02/25 12:11:28;;;;;;;2.03;1.20;;;8.10;97.30;;;;;;4967041;28;20451;-71
2023/02/25 12:14:12;;;;;;;3.20;1.60;;;8.10;97.50;;;;;;4985077;28;20756;-71
2023/02/25 12:16:57;;;;;;;3.33;1.57;;;8.10;97.30;;;;;;4984755;28;20803;-73
2023/02/25 12:20:07;;;;;;;3.10;1.40;;;8.20;97.30;;;;;;4985764;28;20825;-70
2023/02/25 12:22:51;;;;;;;3.10;2.20;;;8.20;97.10;;;;;;4890146;29;20969;-71
2023/02/25 12:25:41;;;;;;;3.43;1.80;;;8.10;97.40;;;;;;4921263;29;20445;-74
2023/02/25 12:28:26;;;;;;;3.50;2.00;;;7.90;97.50;;;;;;4972400;28;20502;-71
2023/02/25 12:31:18;;;;;;;3.53;1.70;;;7.90;98.30;;;;;;4985048;28;20426;-70
2023/02/25 12:34:13;;;;;;;3.00;1.53;;;7.90;98.40;;;;;;4984539;28;20413;-70
2023/02/25 12:36:48;;;;;;;3.37;1.50;;;8.00;98.50;;;;;;4984742;28;20411;-72
2023/02/25 12:39:37;;;;;;;3.83;1.70;;;7.80;98.60;;;;;;4983467;28;20779;-71
2023/02/25 12:42:36;;;;;;;3.43;1.90;;;7.50;99.00;;;;;;4985173;28;20420;-70
2023/02/25 12:45:14;;;;;;;3.87;1.90;;;7.60;99.50;;;;;;4984857;28;20427;-71
2023/02/25 12:47:46;;;;;;;2.60;1.80;;;7.80;99.50;;;;;;4984350;28;20846;-73
2023/02/25 12:50:31;;;;;;;2.40;1.53;;;7.90;99.50;;;;;;4967717;28;20703;-71
2023/02/25 12:53:27;;;;;;;4.40;1.80;;;7.80;99.80;;;;;;4984859;28;20415;-70
2023/02/25 12:56:06;;;;;;;3.90;2.20;;;7.70;99.90;;;;;;4988619;28;20483;-72
2023/02/25 12:58:38;;;;;;;3.10;1.80;;;7.40;99.90;;;;;;4988378;28;20406;-74
2023/02/25 13:01:36;;;;;;;5.10;2.10;;;7.20;99.90;;;;;;4988423;28;20467;-71
2023/02/25 13:04:39;;;;;;;2.47;1.87;;;6.90;99.90;;;;;;4989145;28;20413;-71
2023/02/25 13:07:37;;;;;;;3.73;2.57;;;6.90;99.90;;;;;;4989395;28;20423;-71
2023/02/25 13:10:21;;;;;;;5.30;2.47;;;6.90;99.90;;;;;;4989415;28;20485;-73
2023/02/25 13:13:15;;;;;;;3.80;2.27;;;6.90;99.90;;;;;;4989197;28;20496;-70
2023/02/25 13:16:21;;;;;;;5.37;2.60;;;7.00;99.90;;;;;;4988818;28;20437;-71
2023/02/25 13:19:06;;;;;;;2.93;1.97;;;6.90;99.90;;;;;;4987303;28;20491;-74
2023/02/25 13:21:50;;;;;;;6.00;3.23;;;7.00;99.90;;;;;;4985951;28;20981;-74